createdAt,value
2022-10-11T00:01:20.543Z,99.46
2022-10-11T00:03:47.260Z,100.00
2022-10-11T00:06:13.756Z,100.00
2022-10-11T00:08:40.283Z,99.87
2022-10-11T00:11:07.929Z,98.98
2022-10-11T00:13:34.970Z,98.95
2022-10-11T00:16:06.633Z,97.88
2022-10-11T00:18:33.356Z,96.87
2022-10-11T00:21:02.201Z,97.77
2022-10-11T00:23:28.845Z,98.24
2022-10-11T00:26:00.183Z,97.74
2022-10-11T00:28:26.905Z,97.60
2022-10-11T00:30:53.608Z,97.15
2022-10-11T00:33:20.236Z,97.83
2022-10-11T00:35:46.783Z,97.46
2022-10-11T00:38:13.442Z,97.86
2022-10-11T00:40:40.163Z,97.47
2022-10-11T00:43:19.472Z,98.04
2022-10-11T00:45:58.335Z,97.22
2022-10-11T00:48:44.526Z,97.36
2022-10-11T00:51:23.506Z,97.15
2022-10-11T00:53:51.470Z,98.52
2022-10-11T00:56:24.887Z,100.00
2022-10-11T00:58:52.742Z,100.00
2022-10-11T01:01:19.492Z,100.00
2022-10-11T01:03:46.995Z,99.73
2022-10-11T01:06:13.651Z,99.79
2022-10-11T01:08:40.555Z,99.49
2022-10-11T01:11:12.187Z,100.00
2022-10-11T01:14:03.176Z,100.00
2022-10-11T01:16:39.398Z,100.00
2022-10-11T01:19:08.923Z,100.00
2022-10-11T01:21:48.577Z,100.00
2022-10-11T01:24:38.261Z,100.00
2022-10-11T01:27:10.786Z,100.00
2022-10-11T01:30:03.802Z,100.00
2022-10-11T01:33:02.677Z,100.00
2022-10-11T01:35:49.186Z,100.00
2022-10-11T01:38:34.918Z,100.00
2022-10-11T01:41:10.179Z,100.00
2022-10-11T01:43:39.345Z,100.00
2022-10-11T01:46:08.617Z,100.00
2022-10-11T01:48:56.843Z,100.00
2022-10-11T01:51:29.939Z,100.00
2022-10-11T01:54:04.180Z,100.00
2022-10-11T01:56:52.042Z,100.00
2022-10-11T01:59:37.173Z,100.00
2022-10-11T02:02:40.953Z,100.00
2022-10-11T02:05:19.783Z,100.00
2022-10-11T02:07:58.676Z,100.00
2022-10-11T02:10:35.924Z,100.00
2022-10-11T02:13:09.402Z,100.00
2022-10-11T02:15:40.413Z,100.00
2022-10-11T02:18:15.997Z,100.00
2022-10-11T02:20:45.073Z,100.00
2022-10-11T02:23:23.308Z,100.00
2022-10-11T02:25:51.937Z,100.00
2022-10-11T02:28:25.650Z,100.00
2022-10-11T02:30:54.647Z,100.00
2022-10-11T02:33:27.378Z,100.00
2022-10-11T02:36:01.092Z,100.00
2022-10-11T02:38:34.167Z,100.00
2022-10-11T02:41:21.431Z,100.00
2022-10-11T02:43:57.555Z,100.00
2022-10-11T02:46:26.558Z,100.00
2022-10-11T02:48:54.060Z,100.00
2022-10-11T02:51:20.646Z,100.00
2022-10-11T02:53:47.497Z,100.00
2022-10-11T02:56:14.034Z,100.00
2022-10-11T02:58:40.628Z,100.00
2022-10-11T03:01:07.210Z,100.00
2022-10-11T03:03:33.810Z,100.00
2022-10-11T03:06:02.823Z,100.00
2022-10-11T03:08:29.877Z,100.00
2022-10-11T03:10:56.443Z,100.00
2022-10-11T03:13:23.112Z,100.00
2022-10-11T03:16:02.810Z,100.00
2022-10-11T03:18:34.014Z,100.00
2022-10-11T03:21:00.696Z,100.00
2022-10-11T03:23:27.343Z,100.00
2022-10-11T03:25:53.949Z,100.00
2022-10-11T03:28:21.285Z,100.00
2022-10-11T03:30:49.441Z,100.00
2022-10-11T03:33:17.160Z,100.00
2022-10-11T03:35:45.652Z,100.00
2022-10-11T03:38:22.126Z,100.00
2022-10-11T03:40:48.929Z,100.00
2022-10-11T03:43:15.924Z,100.00
2022-10-11T03:45:42.613Z,100.00
2022-10-11T03:48:09.744Z,100.00
2022-10-11T03:50:37.090Z,100.00
2022-10-11T03:53:05.037Z,100.00
2022-10-11T03:55:31.733Z,100.00
2022-10-11T03:57:58.306Z,100.00
2022-10-11T04:00:25.036Z,100.00
2022-10-11T04:02:51.536Z,100.00
2022-10-11T04:05:18.214Z,100.00
2022-10-11T04:07:44.812Z,100.00
2022-10-11T04:10:11.422Z,100.00
2022-10-11T04:12:39.132Z,100.00
2022-10-11T04:15:07.010Z,100.00
2022-10-11T04:17:33.628Z,100.00
2022-10-11T04:20:00.169Z,100.00
2022-10-11T04:22:26.764Z,100.00
2022-10-11T04:24:53.351Z,100.00
2022-10-11T04:27:19.991Z,100.00
2022-10-11T04:29:46.588Z,100.00
2022-10-11T04:32:13.144Z,100.00
2022-10-11T04:34:39.758Z,100.00
2022-10-11T04:37:06.409Z,100.00
2022-10-11T04:39:33.067Z,100.00
2022-10-11T04:41:59.611Z,100.00
2022-10-11T04:44:26.160Z,100.00
2022-10-11T04:46:53.041Z,100.00
2022-10-11T04:49:19.698Z,100.00
2022-10-11T04:51:46.220Z,100.00
2022-10-11T04:54:12.813Z,100.00
2022-10-11T04:56:39.622Z,100.00
2022-10-11T04:59:06.335Z,100.00
2022-10-11T05:01:33.075Z,100.00
2022-10-11T05:03:59.926Z,100.00
2022-10-11T05:06:26.622Z,100.00
2022-10-11T05:08:53.161Z,100.00
2022-10-11T05:11:19.877Z,100.00
2022-10-11T05:13:46.834Z,100.00
2022-10-11T05:16:14.625Z,100.00
2022-10-11T05:18:41.621Z,100.00
2022-10-11T05:21:14.413Z,100.00
2022-10-11T05:23:41.187Z,100.00
2022-10-11T05:26:08.206Z,100.00
2022-10-11T05:28:35.211Z,100.00
2022-10-11T05:31:01.838Z,100.00
2022-10-11T05:33:28.576Z,100.00
2022-10-11T05:35:55.210Z,100.00
2022-10-11T05:38:22.767Z,100.00
2022-10-11T05:40:50.129Z,100.00
2022-10-11T05:43:16.730Z,100.00
2022-10-11T05:45:44.556Z,100.00
2022-10-11T05:48:11.532Z,100.00
2022-10-11T05:50:39.218Z,100.00
2022-10-11T05:53:06.269Z,100.00
2022-10-11T05:55:40.590Z,100.00
2022-10-11T05:58:14.432Z,100.00
2022-10-11T06:00:41.326Z,100.00
2022-10-11T06:03:10.927Z,100.00
2022-10-11T06:05:37.861Z,100.00
2022-10-11T06:08:06.056Z,100.00
2022-10-11T06:10:33.093Z,100.00
2022-10-11T06:12:59.799Z,100.00
2022-10-11T06:15:26.745Z,100.00
2022-10-11T06:17:53.389Z,100.00
2022-10-11T06:20:19.984Z,100.00
2022-10-11T06:22:46.534Z,100.00
2022-10-11T06:25:13.118Z,100.00
2022-10-11T06:27:39.668Z,100.00
2022-10-11T06:30:07.351Z,100.00
2022-10-11T06:32:33.932Z,100.00
2022-10-11T06:35:00.526Z,100.00
2022-10-11T06:37:27.093Z,100.00
2022-10-11T06:39:53.663Z,100.00
2022-10-11T06:42:20.275Z,100.00
2022-10-11T06:44:46.902Z,100.00
2022-10-11T06:47:13.470Z,100.00
2022-10-11T06:49:40.020Z,100.00
2022-10-11T06:52:06.573Z,100.00
2022-10-11T06:54:33.145Z,100.00
2022-10-11T06:57:00.131Z,100.00
2022-10-11T06:59:26.644Z,100.00
2022-10-11T07:01:53.179Z,100.00
2022-10-11T07:04:19.680Z,100.00
2022-10-11T07:06:46.303Z,100.00
2022-10-11T07:09:12.982Z,100.00
2022-10-11T07:11:39.700Z,100.00
2022-10-11T07:14:07.996Z,100.00
2022-10-11T07:16:36.190Z,100.00
2022-10-11T07:19:04.753Z,100.00
2022-10-11T07:21:33.341Z,100.00
2022-10-11T07:24:00.352Z,100.00
2022-10-11T07:26:27.590Z,100.00
2022-10-11T07:28:54.287Z,100.00
2022-10-11T07:31:23.673Z,100.00
2022-10-11T07:33:50.250Z,100.00
2022-10-11T07:36:16.958Z,100.00
2022-10-11T07:38:45.534Z,100.00
2022-10-11T07:41:12.961Z,100.00
2022-10-11T07:43:40.137Z,100.00
2022-10-11T07:46:07.686Z,100.00
2022-10-11T07:48:36.518Z,100.00
2022-10-11T07:51:15.799Z,100.00
2022-10-11T07:53:44.527Z,100.00
2022-10-11T07:56:13.094Z,100.00
2022-10-11T07:58:41.284Z,100.00
2022-10-11T08:01:09.216Z,100.00
2022-10-11T08:03:37.149Z,100.00
2022-10-11T08:06:07.465Z,100.00
2022-10-11T08:08:34.596Z,100.00
2022-10-11T08:11:01.299Z,100.00
2022-10-11T08:13:28.199Z,100.00
2022-10-11T08:15:55.210Z,100.00
2022-10-11T08:18:21.898Z,100.00
2022-10-11T08:20:48.752Z,100.00
2022-10-11T08:23:17.295Z,100.00
2022-10-11T08:25:46.311Z,100.00
2022-10-11T08:28:20.876Z,100.00
2022-10-11T08:30:49.716Z,100.00
2022-10-11T08:33:17.761Z,100.00
2022-10-11T08:35:45.115Z,100.00
2022-10-11T08:38:11.922Z,100.00
2022-10-11T08:40:45.707Z,100.00
2022-10-11T08:43:26.025Z,100.00
2022-10-11T08:45:56.051Z,100.00
2022-10-11T08:48:41.573Z,100.00
2022-10-11T08:51:30.641Z,100.00
2022-10-11T08:54:07.221Z,100.00
2022-10-11T08:56:37.710Z,100.00
2022-10-11T08:59:09.304Z,100.00
2022-10-11T09:01:36.087Z,100.00
2022-10-11T09:04:03.651Z,100.00
2022-10-11T09:06:54.060Z,100.00
2022-10-11T09:09:50.032Z,100.00
2022-10-11T09:12:40.501Z,100.00
2022-10-11T09:15:24.424Z,100.00
2022-10-11T09:17:58.853Z,100.00
2022-10-11T09:20:31.451Z,100.00
2022-10-11T09:23:01.803Z,100.00
2022-10-11T09:25:34.928Z,100.00
2022-10-11T09:28:40.370Z,100.00
2022-10-11T09:31:10.010Z,100.00
2022-10-11T09:33:41.910Z,100.00
2022-10-11T09:36:44.393Z,100.00
2022-10-11T09:39:37.119Z,100.00
2022-10-11T09:42:11.501Z,100.00
2022-10-11T09:44:49.887Z,100.00
2022-10-11T09:47:24.269Z,100.00
2022-10-11T09:49:56.538Z,100.00
2022-10-11T09:52:24.095Z,100.00
2022-10-11T09:54:54.549Z,100.00
2022-10-11T09:57:25.982Z,100.00
2022-10-11T10:00:00.418Z,100.00
2022-10-11T10:02:38.312Z,100.00
2022-10-11T10:05:19.197Z,100.00
2022-10-11T10:08:10.372Z,100.00
2022-10-11T10:10:48.680Z,100.00
2022-10-11T10:13:25.502Z,100.00
2022-10-11T10:15:55.033Z,100.00
2022-10-11T10:18:33.269Z,100.00
2022-10-11T10:21:00.935Z,100.00
2022-10-11T10:23:34.753Z,100.00
2022-10-11T10:26:12.514Z,100.00
2022-10-11T10:28:53.514Z,100.00
2022-10-11T10:31:26.416Z,100.00
2022-10-11T10:33:54.630Z,100.00
2022-10-11T10:36:30.006Z,100.00
2022-10-11T10:39:05.861Z,100.00
2022-10-11T10:41:32.724Z,100.00
2022-10-11T10:44:00.620Z,100.00
2022-10-11T10:46:47.320Z,100.00
2022-10-11T10:52:29.352Z,98.63
2022-10-11T10:55:05.016Z,99.66
2022-10-11T10:57:40.838Z,98.02
2022-10-11T11:00:19.434Z,96.13
2022-10-11T11:02:52.380Z,96.45
2022-10-11T11:05:37.882Z,98.11
2022-10-11T11:08:16.607Z,98.59
2022-10-11T11:11:01.390Z,99.60
2022-10-11T11:13:40.677Z,97.73
2022-10-11T11:16:07.662Z,95.43
2022-10-11T11:18:51.781Z,92.27
2022-10-11T11:21:53.996Z,93.68
2022-10-11T11:24:51.630Z,94.66
2022-10-11T11:27:39.995Z,92.64
2022-10-11T11:30:09.660Z,90.76
2022-10-11T11:32:45.525Z,88.60
2022-10-11T11:35:24.644Z,88.56
2022-10-11T11:38:00.303Z,87.19
2022-10-11T11:40:39.346Z,84.75
2022-10-11T11:43:26.966Z,85.22
2022-10-11T11:45:58.299Z,83.67
2022-10-11T11:48:26.681Z,86.74
2022-10-11T11:51:12.965Z,88.33
2022-10-11T11:54:15.307Z,89.79
2022-10-11T11:56:44.967Z,88.53
2022-10-11T11:59:27.173Z,87.69
2022-10-11T12:02:03.805Z,87.66
2022-10-11T12:04:35.916Z,90.61
2022-10-11T12:07:16.337Z,86.71
2022-10-11T12:09:50.285Z,84.73
2022-10-11T12:12:36.118Z,82.93
2022-10-11T12:15:25.747Z,83.32
2022-10-11T12:17:58.154Z,87.69
2022-10-11T12:20:24.629Z,81.78
2022-10-11T12:23:01.308Z,81.17
2022-10-11T12:25:28.735Z,80.57
2022-10-11T12:28:21.080Z,77.09
2022-10-11T12:30:47.777Z,81.42
2022-10-11T12:33:21.311Z,76.45
2022-10-11T12:35:56.429Z,75.01
2022-10-11T12:38:34.481Z,76.95
2022-10-11T12:41:10.222Z,80.90
2022-10-11T12:44:09.040Z,77.54
2022-10-11T12:47:00.136Z,69.84
2022-10-11T12:49:46.029Z,72.27
2022-10-11T12:52:18.301Z,76.89
2022-10-11T12:54:51.877Z,73.97
2022-10-11T12:57:45.196Z,65.40
2022-10-11T13:00:27.878Z,69.56
2022-10-11T13:02:56.586Z,67.67
2022-10-11T13:05:23.105Z,64.88
2022-10-11T13:07:51.544Z,67.85
2022-10-11T13:10:25.022Z,71.48
2022-10-11T13:12:53.337Z,66.75
2022-10-11T13:15:22.630Z,68.78
2022-10-11T13:17:51.704Z,66.63
2022-10-11T13:20:23.769Z,65.14
2022-10-11T13:22:53.096Z,64.47
2022-10-11T13:25:21.655Z,66.90
2022-10-11T13:27:51.219Z,63.10
2022-10-11T13:30:24.010Z,67.18
2022-10-11T13:32:52.066Z,65.21
2022-10-11T13:35:34.423Z,65.05
2022-10-11T13:38:01.611Z,65.30
2022-10-11T13:40:29.483Z,64.76
2022-10-11T13:42:56.896Z,63.40
2022-10-11T13:45:26.148Z,62.92
2022-10-11T13:47:55.674Z,61.63
2022-10-11T13:50:30.292Z,63.94
2022-10-11T13:53:22.873Z,63.00
2022-10-11T13:56:02.545Z,61.12
2022-10-11T13:58:42.438Z,62.07
2022-10-11T14:01:20.916Z,63.02
2022-10-11T14:03:55.813Z,63.09
2022-10-11T14:06:22.870Z,63.48
2022-10-11T14:08:56.722Z,62.06
2022-10-11T14:11:39.222Z,60.91
2022-10-11T14:14:29.189Z,62.89
2022-10-11T14:16:57.703Z,61.03
2022-10-11T14:19:24.429Z,61.85
2022-10-11T14:21:53.323Z,62.85
2022-10-11T14:24:21.713Z,62.72
2022-10-11T14:26:51.758Z,62.61
2022-10-11T14:29:31.076Z,62.04
2022-10-11T14:32:10.709Z,62.63
2022-10-11T14:34:37.771Z,61.00
2022-10-11T14:37:04.331Z,60.11
2022-10-11T14:39:32.477Z,60.00
2022-10-11T14:41:59.350Z,64.61
2022-10-11T14:44:26.190Z,57.84
2022-10-11T14:46:54.655Z,61.37
2022-10-11T14:49:25.135Z,59.86
2022-10-11T14:51:53.243Z,56.76
2022-10-11T14:54:24.244Z,56.86
2022-10-11T14:56:52.522Z,54.74
2022-10-11T14:59:21.777Z,54.61
2022-10-11T15:01:51.970Z,52.80
2022-10-11T15:04:22.144Z,53.96
2022-10-11T15:06:49.329Z,53.98
2022-10-11T15:09:17.089Z,54.11
2022-10-11T15:11:43.772Z,54.60
2022-10-11T15:14:10.266Z,55.69
2022-10-11T15:16:36.902Z,56.50
2022-10-11T15:19:03.730Z,56.87
2022-10-11T15:21:30.482Z,56.68
2022-10-11T15:23:57.108Z,53.78
2022-10-11T15:26:30.014Z,54.30
2022-10-11T15:28:57.770Z,54.13
2022-10-11T15:31:24.627Z,51.68
2022-10-11T15:33:51.426Z,49.43
2022-10-11T15:36:22.293Z,51.41
2022-10-11T15:38:49.414Z,56.16
2022-10-11T15:41:18.734Z,57.81
2022-10-11T15:43:47.013Z,56.53
2022-10-11T15:46:17.444Z,55.96
2022-10-11T15:48:45.287Z,59.27
2022-10-11T15:51:11.929Z,58.77
2022-10-11T15:53:39.619Z,53.72
2022-10-11T15:56:15.160Z,58.96
2022-10-11T15:58:42.099Z,63.04
2022-10-11T16:01:13.541Z,66.60
2022-10-11T16:03:40.540Z,66.74
2022-10-11T16:06:08.565Z,68.12
2022-10-11T16:08:36.015Z,68.59
2022-10-11T16:11:03.606Z,69.53
2022-10-11T16:13:30.334Z,69.98
2022-10-11T16:15:56.997Z,70.20
2022-10-11T16:18:24.031Z,70.63
2022-10-11T16:20:52.004Z,70.54
2022-10-11T16:23:20.898Z,71.62
2022-10-11T16:25:56.962Z,72.78
2022-10-11T16:28:23.762Z,73.03
2022-10-11T16:30:50.614Z,74.44
2022-10-11T16:33:17.140Z,74.33
2022-10-11T16:35:43.798Z,74.50
2022-10-11T16:38:12.802Z,76.34
2022-10-11T16:40:40.368Z,76.76
2022-10-11T16:43:08.170Z,77.27
2022-10-11T16:45:35.855Z,78.44
2022-10-11T16:48:03.866Z,78.77
2022-10-11T16:50:31.740Z,79.57
2022-10-11T16:53:00.054Z,80.37
2022-10-11T16:55:26.714Z,80.13
2022-10-11T16:57:53.271Z,79.77
2022-10-11T17:00:25.316Z,81.62
2022-10-11T17:05:50.115Z,81.44
2022-10-11T17:08:27.827Z,82.86
2022-10-11T17:11:32.512Z,82.54
2022-10-11T17:14:28.177Z,82.81
2022-10-11T17:16:56.138Z,83.92
2022-10-11T17:22:27.564Z,84.38
2022-10-11T17:24:54.438Z,84.69
2022-10-11T17:27:31.895Z,85.61
2022-10-11T17:30:10.954Z,85.00
2022-10-11T17:32:47.598Z,85.36
2022-10-11T17:35:14.666Z,85.09
2022-10-11T17:44:17.046Z,86.10
2022-10-11T17:50:38.441Z,86.23
2022-10-11T17:54:08.292Z,87.02
2022-10-11T17:59:42.488Z,87.19
2022-10-11T18:02:10.330Z,87.27
2022-10-11T18:04:37.676Z,87.24
2022-10-11T18:07:04.690Z,87.58
2022-10-11T18:09:33.204Z,88.00
2022-10-11T18:12:00.439Z,88.39
2022-10-11T18:14:27.698Z,87.89
2022-10-11T18:16:54.653Z,89.47
2022-10-11T18:19:22.178Z,89.82
2022-10-11T18:22:07.037Z,89.49
2022-10-11T18:24:55.959Z,89.46
2022-10-11T18:27:22.717Z,89.48
2022-10-11T18:29:49.376Z,89.65
2022-10-11T18:32:25.451Z,89.13
2022-10-11T18:34:57.916Z,89.60
2022-10-11T18:37:26.773Z,89.51
2022-10-11T18:39:54.252Z,88.77
2022-10-11T18:42:21.744Z,89.02
2022-10-11T18:44:49.695Z,90.01
2022-10-11T18:47:17.931Z,90.06
2022-10-11T18:49:44.494Z,89.78
2022-10-11T18:52:11.317Z,90.02
2022-10-11T18:54:39.717Z,89.91
2022-10-11T18:57:09.867Z,90.03
2022-10-11T18:59:37.556Z,90.22
2022-10-11T19:02:05.126Z,93.00
2022-10-11T19:04:34.619Z,92.41
2022-10-11T19:07:02.959Z,92.72
2022-10-11T19:09:31.070Z,92.30
2022-10-11T19:11:58.790Z,92.97
2022-10-11T19:14:30.409Z,92.65
2022-10-11T19:17:00.114Z,95.27
2022-10-11T19:19:29.418Z,95.10
2022-10-11T19:21:57.839Z,94.81
2022-10-11T19:24:27.355Z,94.60
2022-10-11T19:26:57.323Z,93.83
2022-10-11T19:29:28.722Z,93.46
2022-10-11T19:31:57.822Z,93.08
2022-10-11T19:34:31.318Z,93.05
2022-10-11T19:37:00.667Z,93.05
2022-10-11T19:39:28.033Z,93.41
2022-10-11T19:41:54.855Z,92.89
2022-10-11T19:44:21.540Z,93.90
2022-10-11T19:46:52.483Z,93.82
2022-10-11T19:49:22.754Z,93.05
2022-10-11T19:51:49.730Z,94.07
2022-10-11T19:54:17.070Z,93.76
2022-10-11T19:56:44.679Z,93.57
2022-10-11T19:59:12.141Z,93.72
2022-10-11T20:01:39.965Z,93.08
2022-10-11T20:04:22.612Z,93.97
2022-10-11T20:06:56.727Z,94.21
2022-10-11T20:09:31.081Z,94.66
2022-10-11T20:11:58.523Z,94.98
2022-10-11T20:14:25.289Z,94.85
2022-10-11T20:16:52.011Z,95.02
2022-10-11T20:19:18.793Z,94.09
2022-10-11T20:21:45.521Z,94.81
2022-10-11T20:24:12.381Z,95.40
2022-10-11T20:26:39.534Z,95.33
2022-10-11T20:29:06.475Z,94.80
2022-10-11T20:31:38.448Z,94.66
2022-10-11T20:34:07.259Z,94.53
2022-10-11T20:36:35.798Z,95.28
2022-10-11T20:39:02.552Z,94.29
2022-10-11T20:41:31.819Z,96.59
2022-10-11T20:43:59.888Z,96.17
2022-10-11T20:46:29.817Z,94.75
2022-10-11T20:49:08.141Z,94.09
2022-10-11T20:51:38.551Z,94.72
2022-10-11T20:54:05.457Z,93.54
2022-10-11T20:56:32.271Z,93.50
2022-10-11T20:58:59.413Z,93.89
2022-10-11T21:01:29.038Z,93.95
2022-10-11T21:03:57.327Z,93.25
2022-10-11T21:06:24.201Z,93.77
2022-10-11T21:08:50.826Z,97.96
2022-10-11T21:11:17.415Z,97.88
2022-10-11T21:13:44.026Z,96.64
2022-10-11T21:16:16.056Z,96.07
2022-10-11T21:18:43.060Z,95.58
2022-10-11T21:21:14.608Z,94.91
2022-10-11T21:23:41.495Z,95.33
2022-10-11T21:26:11.299Z,95.11
2022-10-11T21:28:38.827Z,94.42
2022-10-11T21:31:10.997Z,93.70
2022-10-11T21:33:41.209Z,94.37
2022-10-11T21:36:11.250Z,93.95
2022-10-11T21:38:38.270Z,94.33
2022-10-11T21:41:06.882Z,94.02
2022-10-11T21:43:35.816Z,94.24
2022-10-11T21:46:47.955Z,94.97
2022-10-11T21:49:16.852Z,94.73
2022-10-11T21:51:43.492Z,93.90
2022-10-11T21:54:10.034Z,94.78
2022-10-11T21:56:36.650Z,95.17
2022-10-11T21:59:06.602Z,94.16
2022-10-11T22:01:36.765Z,96.02
2022-10-11T22:04:07.460Z,95.49
2022-10-11T22:06:34.974Z,95.09
2022-10-11T22:09:01.813Z,95.43
2022-10-11T22:11:28.489Z,94.87
2022-10-11T22:13:55.228Z,94.65
2022-10-11T22:16:21.794Z,94.07
2022-10-11T22:18:48.414Z,93.44
2022-10-11T22:21:18.110Z,93.21
2022-10-11T22:23:46.090Z,93.94
2022-10-11T22:26:16.267Z,94.24
2022-10-11T22:28:43.338Z,94.61
2022-10-11T22:31:10.346Z,94.70
2022-10-11T22:33:37.463Z,94.66
2022-10-11T22:36:10.078Z,95.10
2022-10-11T22:38:38.382Z,95.51
2022-10-11T22:41:05.422Z,94.89
2022-10-11T22:43:32.400Z,95.45
2022-10-11T22:45:59.005Z,95.48
2022-10-11T22:48:25.763Z,94.60
2022-10-11T22:50:52.450Z,94.45
2022-10-11T22:53:19.392Z,94.25
2022-10-11T22:55:46.585Z,93.10
2022-10-11T22:58:13.513Z,94.12
2022-10-11T23:00:40.096Z,94.66
2022-10-11T23:03:09.624Z,95.73
2022-10-11T23:05:36.448Z,95.98
2022-10-11T23:08:02.979Z,95.97
2022-10-11T23:10:29.544Z,95.72
2022-10-11T23:12:56.129Z,95.75
2022-10-11T23:15:22.732Z,95.87
2022-10-11T23:17:49.329Z,95.20
2022-10-11T23:20:15.908Z,95.96
2022-10-11T23:22:42.434Z,95.13
2022-10-11T23:25:09.221Z,94.90
2022-10-11T23:27:36.111Z,95.34
2022-10-11T23:30:03.780Z,95.78
2022-10-11T23:32:30.537Z,95.57
2022-10-11T23:34:57.164Z,95.47
2022-10-11T23:37:23.759Z,95.45
2022-10-11T23:39:50.272Z,96.41
2022-10-11T23:42:16.785Z,95.16
2022-10-11T23:44:43.340Z,95.49
2022-10-11T23:47:09.894Z,94.74
2022-10-11T23:49:36.454Z,94.84
2022-10-11T23:52:03.015Z,95.55
2022-10-11T23:54:29.583Z,96.21
2022-10-11T23:56:56.272Z,95.53
2022-10-11T23:59:22.864Z,95.00
